<?xml version="1.0" encoding="utf-8"?>
<gpx xmlns:xsi="http://www.w3.org/2001/XMLSchema-instance" xmlns:xsd="http://www.w3.org/2001/XMLSchema" version="1.1" creator="Shapelink.com" xmlns="http://www.topografix.com/GPX/1/1" xmlns:gpxtpx="http://www.garmin.com/xmlschemas/TrackPointExtension/v1">
  <metadata>
    <name>Løping 4.81 km, 2012-08-30</name>
    <desc></desc>
    <author><name>Mikael Blom</name></author> 
    <time>2012-08-30T17:15:55Z</time>
  </metadata>
  <trk>
    <name>Løping 4.81 km, 2012-08-30</name>
    <trkseg>
      <trkpt lat="59.9551419" lon="17.7143469">
        <ele>44.8386</ele>
        <time>2012-08-30T17:15:55Z</time>
      </trkpt>
      <trkpt lat="59.9550728" lon="17.7144565">
        <ele>40.9934</ele>
        <time>2012-08-30T17:15:59Z</time>
      </trkpt>
      <trkpt lat="59.9549422" lon="17.7147042">
        <ele>36.6675</ele>
        <time>2012-08-30T17:16:05Z</time>
      </trkpt>
      <trkpt lat="59.9548277" lon="17.7148248">
        <ele>34.7449</ele>
        <time>2012-08-30T17:16:10Z</time>
      </trkpt>
      <trkpt lat="59.954715" lon="17.7148298">
        <ele>32.3416</ele>
        <time>2012-08-30T17:16:15Z</time>
      </trkpt>
      <trkpt lat="59.9545387" lon="17.7148372">
        <ele>32.3416</ele>
        <time>2012-08-30T17:16:21Z</time>
      </trkpt>
      <trkpt lat="59.9543955" lon="17.7148591">
        <ele>36.1868</ele>
        <time>2012-08-30T17:16:26Z</time>
      </trkpt>
      <trkpt lat="59.9542804" lon="17.7148721">
        <ele>34.7449</ele>
        <time>2012-08-30T17:16:31Z</time>
      </trkpt>
      <trkpt lat="59.9541791" lon="17.7148912">
        <ele>32.3416</ele>
        <time>2012-08-30T17:16:36Z</time>
      </trkpt>
      <trkpt lat="59.9540852" lon="17.7149077">
        <ele>28.9769</ele>
        <time>2012-08-30T17:16:41Z</time>
      </trkpt>
      <trkpt lat="59.9539901" lon="17.7149441">
        <ele>26.5736</ele>
        <time>2012-08-30T17:16:46Z</time>
      </trkpt>
      <trkpt lat="59.953971" lon="17.7149591">
        <ele>25.1317</ele>
        <time>2012-08-30T17:16:47Z</time>
      </trkpt>
      <trkpt lat="59.9538433" lon="17.7150385">
        <ele>18.4023</ele>
        <time>2012-08-30T17:16:54Z</time>
      </trkpt>
      <trkpt lat="59.9537442" lon="17.7151226">
        <ele>14.0764</ele>
        <time>2012-08-30T17:16:59Z</time>
      </trkpt>
      <trkpt lat="59.9537282" lon="17.7151403">
        <ele>13.5958</ele>
        <time>2012-08-30T17:17:00Z</time>
      </trkpt>
      <trkpt lat="59.9536777" lon="17.7152438">
        <ele>11.6732</ele>
        <time>2012-08-30T17:17:04Z</time>
      </trkpt>
      <trkpt lat="59.9536494" lon="17.7153188">
        <ele>9.75061</ele>
        <time>2012-08-30T17:17:06Z</time>
      </trkpt>
      <trkpt lat="59.9535537" lon="17.7154776">
        <ele>7.82788</ele>
        <time>2012-08-30T17:17:12Z</time>
      </trkpt>
      <trkpt lat="59.9534505" lon="17.7156041">
        <ele>6.38586</ele>
        <time>2012-08-30T17:17:17Z</time>
      </trkpt>
      <trkpt lat="59.9534273" lon="17.715628">
        <ele>5.90527</ele>
        <time>2012-08-30T17:17:18Z</time>
      </trkpt>
      <trkpt lat="59.9533263" lon="17.7158204">
        <ele>5.42456</ele>
        <time>2012-08-30T17:17:24Z</time>
      </trkpt>
      <trkpt lat="59.9533127" lon="17.7158497">
        <ele>4.46326</ele>
        <time>2012-08-30T17:17:25Z</time>
      </trkpt>
      <trkpt lat="59.9532515" lon="17.7160193">
        <ele>5.42456</ele>
        <time>2012-08-30T17:17:30Z</time>
      </trkpt>
      <trkpt lat="59.9532076" lon="17.7161666">
        <ele>8.30859</ele>
        <time>2012-08-30T17:17:33Z</time>
      </trkpt>
      <trkpt lat="59.9531324" lon="17.7164604">
        <ele>11.6732</ele>
        <time>2012-08-30T17:17:39Z</time>
      </trkpt>
      <trkpt lat="59.9530673" lon="17.7168343">
        <ele>14.557</ele>
        <time>2012-08-30T17:17:46Z</time>
      </trkpt>
      <trkpt lat="59.9530248" lon="17.7170638">
        <ele>14.557</ele>
        <time>2012-08-30T17:17:51Z</time>
      </trkpt>
      <trkpt lat="59.9529639" lon="17.7172543">
        <ele>14.557</ele>
        <time>2012-08-30T17:17:55Z</time>
      </trkpt>
      <trkpt lat="59.9529334" lon="17.7173442">
        <ele>15.0377</ele>
        <time>2012-08-30T17:17:57Z</time>
      </trkpt>
      <trkpt lat="59.9528651" lon="17.717643">
        <ele>23.209</ele>
        <time>2012-08-30T17:18:04Z</time>
      </trkpt>
      <trkpt lat="59.9527735" lon="17.7178961">
        <ele>30.4188</ele>
        <time>2012-08-30T17:18:10Z</time>
      </trkpt>
      <trkpt lat="59.9527117" lon="17.7180872">
        <ele>38.5901</ele>
        <time>2012-08-30T17:18:15Z</time>
      </trkpt>
      <trkpt lat="59.9526507" lon="17.7183521">
        <ele>43.8773</ele>
        <time>2012-08-30T17:18:21Z</time>
      </trkpt>
      <trkpt lat="59.9526289" lon="17.7184884">
        <ele>43.8773</ele>
        <time>2012-08-30T17:18:25Z</time>
      </trkpt>
      <trkpt lat="59.9526059" lon="17.7185434">
        <ele>43.3966</ele>
        <time>2012-08-30T17:18:27Z</time>
      </trkpt>
      <trkpt lat="59.9525222" lon="17.7188421">
        <ele>42.4354</ele>
        <time>2012-08-30T17:18:34Z</time>
      </trkpt>
      <trkpt lat="59.9524799" lon="17.7191204">
        <ele>42.4354</ele>
        <time>2012-08-30T17:18:39Z</time>
      </trkpt>
      <trkpt lat="59.9524171" lon="17.7193791">
        <ele>41.9547</ele>
        <time>2012-08-30T17:18:44Z</time>
      </trkpt>
      <trkpt lat="59.9524217" lon="17.7195974">
        <ele>40.0321</ele>
        <time>2012-08-30T17:18:49Z</time>
      </trkpt>
      <trkpt lat="59.952473" lon="17.7198241">
        <ele>42.4354</ele>
        <time>2012-08-30T17:18:54Z</time>
      </trkpt>
      <trkpt lat="59.952502" lon="17.7200652">
        <ele>43.8773</ele>
        <time>2012-08-30T17:18:59Z</time>
      </trkpt>
      <trkpt lat="59.9525019" lon="17.7203036">
        <ele>44.358</ele>
        <time>2012-08-30T17:19:04Z</time>
      </trkpt>
      <trkpt lat="59.9524969" lon="17.7205721">
        <ele>46.2806</ele>
        <time>2012-08-30T17:19:09Z</time>
      </trkpt>
      <trkpt lat="59.952478" lon="17.720819">
        <ele>47.2418</ele>
        <time>2012-08-30T17:19:14Z</time>
      </trkpt>
      <trkpt lat="59.9524843" lon="17.7210166">
        <ele>47.2418</ele>
        <time>2012-08-30T17:19:18Z</time>
      </trkpt>
      <trkpt lat="59.9524829" lon="17.7212983">
        <ele>49.1646</ele>
        <time>2012-08-30T17:19:24Z</time>
      </trkpt>
      <trkpt lat="59.9524666" lon="17.7215374">
        <ele>51.5679</ele>
        <time>2012-08-30T17:19:29Z</time>
      </trkpt>
      <trkpt lat="59.952502" lon="17.7217933">
        <ele>53.0098</ele>
        <time>2012-08-30T17:19:34Z</time>
      </trkpt>
      <trkpt lat="59.9525166" lon="17.7220486">
        <ele>52.5292</ele>
        <time>2012-08-30T17:19:39Z</time>
      </trkpt>
      <trkpt lat="59.9525" lon="17.7223544">
        <ele>50.126</ele>
        <time>2012-08-30T17:19:45Z</time>
      </trkpt>
      <trkpt lat="59.952463" lon="17.7226167">
        <ele>48.684</ele>
        <time>2012-08-30T17:19:50Z</time>
      </trkpt>
      <trkpt lat="59.9524435" lon="17.7228972">
        <ele>46.2806</ele>
        <time>2012-08-30T17:19:56Z</time>
      </trkpt>
      <trkpt lat="59.9524632" lon="17.7231259">
        <ele>45.7999</ele>
        <time>2012-08-30T17:20:01Z</time>
      </trkpt>
      <trkpt lat="59.9525153" lon="17.723354">
        <ele>45.3192</ele>
        <time>2012-08-30T17:20:06Z</time>
      </trkpt>
      <trkpt lat="59.952564" lon="17.7235698">
        <ele>43.3966</ele>
        <time>2012-08-30T17:20:11Z</time>
      </trkpt>
      <trkpt lat="59.9526205" lon="17.7237974">
        <ele>40.9934</ele>
        <time>2012-08-30T17:20:16Z</time>
      </trkpt>
      <trkpt lat="59.9526196" lon="17.7240429">
        <ele>40.5128</ele>
        <time>2012-08-30T17:20:21Z</time>
      </trkpt>
      <trkpt lat="59.9525655" lon="17.7242702">
        <ele>40.0321</ele>
        <time>2012-08-30T17:20:26Z</time>
      </trkpt>
      <trkpt lat="59.9524829" lon="17.7245737">
        <ele>41.9547</ele>
        <time>2012-08-30T17:20:33Z</time>
      </trkpt>
      <trkpt lat="59.9523936" lon="17.7247937">
        <ele>44.8386</ele>
        <time>2012-08-30T17:20:39Z</time>
      </trkpt>
      <trkpt lat="59.9523036" lon="17.7249624">
        <ele>45.3192</ele>
        <time>2012-08-30T17:20:44Z</time>
      </trkpt>
      <trkpt lat="59.9522187" lon="17.7251392">
        <ele>45.7999</ele>
        <time>2012-08-30T17:20:49Z</time>
      </trkpt>
      <trkpt lat="59.9521368" lon="17.7253207">
        <ele>46.7612</ele>
        <time>2012-08-30T17:20:54Z</time>
      </trkpt>
      <trkpt lat="59.9520701" lon="17.7254675">
        <ele>47.2418</ele>
        <time>2012-08-30T17:20:58Z</time>
      </trkpt>
      <trkpt lat="59.9519624" lon="17.7256807">
        <ele>48.684</ele>
        <time>2012-08-30T17:21:04Z</time>
      </trkpt>
      <trkpt lat="59.9518564" lon="17.7258273">
        <ele>49.6453</ele>
        <time>2012-08-30T17:21:09Z</time>
      </trkpt>
      <trkpt lat="59.9517623" lon="17.725984">
        <ele>48.2034</ele>
        <time>2012-08-30T17:21:14Z</time>
      </trkpt>
      <trkpt lat="59.951671" lon="17.7261433">
        <ele>48.2034</ele>
        <time>2012-08-30T17:21:19Z</time>
      </trkpt>
      <trkpt lat="59.9515945" lon="17.7263329">
        <ele>47.2418</ele>
        <time>2012-08-30T17:21:24Z</time>
      </trkpt>
      <trkpt lat="59.9515266" lon="17.7265425">
        <ele>47.7225</ele>
        <time>2012-08-30T17:21:29Z</time>
      </trkpt>
      <trkpt lat="59.9514769" lon="17.7266849">
        <ele>48.2034</ele>
        <time>2012-08-30T17:21:33Z</time>
      </trkpt>
      <trkpt lat="59.9514707" lon="17.7269146">
        <ele>49.1646</ele>
        <time>2012-08-30T17:21:38Z</time>
      </trkpt>
      <trkpt lat="59.9514779" lon="17.7271661">
        <ele>49.6453</ele>
        <time>2012-08-30T17:21:43Z</time>
      </trkpt>
      <trkpt lat="59.9514694" lon="17.7274213">
        <ele>49.6453</ele>
        <time>2012-08-30T17:21:48Z</time>
      </trkpt>
      <trkpt lat="59.951491" lon="17.7276312">
        <ele>48.2034</ele>
        <time>2012-08-30T17:21:52Z</time>
      </trkpt>
      <trkpt lat="59.9515458" lon="17.7278002">
        <ele>44.358</ele>
        <time>2012-08-30T17:21:57Z</time>
      </trkpt>
      <trkpt lat="59.9516566" lon="17.7278747">
        <ele>44.358</ele>
        <time>2012-08-30T17:22:02Z</time>
      </trkpt>
      <trkpt lat="59.9518488" lon="17.7278809">
        <ele>48.2034</ele>
        <time>2012-08-30T17:22:08Z</time>
      </trkpt>
      <trkpt lat="59.9519945" lon="17.7278103">
        <ele>50.126</ele>
        <time>2012-08-30T17:22:13Z</time>
      </trkpt>
      <trkpt lat="59.9520627" lon="17.7276578">
        <ele>51.5679</ele>
        <time>2012-08-30T17:22:17Z</time>
      </trkpt>
      <trkpt lat="59.9521378" lon="17.7274006">
        <ele>52.0486</ele>
        <time>2012-08-30T17:22:23Z</time>
      </trkpt>
      <trkpt lat="59.9521437" lon="17.7273541">
        <ele>52.0486</ele>
        <time>2012-08-30T17:22:24Z</time>
      </trkpt>
      <trkpt lat="59.9521802" lon="17.727178">
        <ele>53.9712</ele>
        <time>2012-08-30T17:22:28Z</time>
      </trkpt>
      <trkpt lat="59.9522166" lon="17.7269165">
        <ele>55.4131</ele>
        <time>2012-08-30T17:22:33Z</time>
      </trkpt>
      <trkpt lat="59.952249" lon="17.7267849">
        <ele>55.4131</ele>
        <time>2012-08-30T17:22:36Z</time>
      </trkpt>
      <trkpt lat="59.9523174" lon="17.7265893">
        <ele>54.4518</ele>
        <time>2012-08-30T17:22:41Z</time>
      </trkpt>
      <trkpt lat="59.9524057" lon="17.7264007">
        <ele>52.0486</ele>
        <time>2012-08-30T17:22:46Z</time>
      </trkpt>
      <trkpt lat="59.9524845" lon="17.7262936">
        <ele>52.0486</ele>
        <time>2012-08-30T17:22:50Z</time>
      </trkpt>
      <trkpt lat="59.9525927" lon="17.726084">
        <ele>51.5679</ele>
        <time>2012-08-30T17:22:56Z</time>
      </trkpt>
      <trkpt lat="59.9526876" lon="17.7258429">
        <ele>50.6066</ele>
        <time>2012-08-30T17:23:01Z</time>
      </trkpt>
      <trkpt lat="59.9527546" lon="17.7256725">
        <ele>51.0872</ele>
        <time>2012-08-30T17:23:05Z</time>
      </trkpt>
      <trkpt lat="59.9528148" lon="17.7254996">
        <ele>51.5679</ele>
        <time>2012-08-30T17:23:09Z</time>
      </trkpt>
      <trkpt lat="59.9529202" lon="17.7252618">
        <ele>51.5679</ele>
        <time>2012-08-30T17:23:15Z</time>
      </trkpt>
      <trkpt lat="59.9530252" lon="17.7250936">
        <ele>51.0872</ele>
        <time>2012-08-30T17:23:21Z</time>
      </trkpt>
      <trkpt lat="59.9530863" lon="17.7250407">
        <ele>50.6066</ele>
        <time>2012-08-30T17:23:24Z</time>
      </trkpt>
      <trkpt lat="59.9531868" lon="17.7248993">
        <ele>49.6453</ele>
        <time>2012-08-30T17:23:29Z</time>
      </trkpt>
      <trkpt lat="59.9532669" lon="17.7247473">
        <ele>49.1646</ele>
        <time>2012-08-30T17:23:34Z</time>
      </trkpt>
      <trkpt lat="59.9533913" lon="17.7245211">
        <ele>49.1646</ele>
        <time>2012-08-30T17:23:41Z</time>
      </trkpt>
      <trkpt lat="59.9534736" lon="17.7243719">
        <ele>49.1646</ele>
        <time>2012-08-30T17:23:46Z</time>
      </trkpt>
      <trkpt lat="59.9535826" lon="17.7241963">
        <ele>50.6066</ele>
        <time>2012-08-30T17:23:51Z</time>
      </trkpt>
      <trkpt lat="59.9536207" lon="17.7241407">
        <ele>51.0872</ele>
        <time>2012-08-30T17:23:53Z</time>
      </trkpt>
      <trkpt lat="59.9537179" lon="17.7240094">
        <ele>52.5292</ele>
        <time>2012-08-30T17:23:58Z</time>
      </trkpt>
      <trkpt lat="59.9538017" lon="17.7239129">
        <ele>53.0098</ele>
        <time>2012-08-30T17:24:02Z</time>
      </trkpt>
      <trkpt lat="59.9539001" lon="17.7237866">
        <ele>53.4905</ele>
        <time>2012-08-30T17:24:07Z</time>
      </trkpt>
      <trkpt lat="59.9539883" lon="17.7237203">
        <ele>57.3358</ele>
        <time>2012-08-30T17:24:11Z</time>
      </trkpt>
      <trkpt lat="59.9541064" lon="17.7235802">
        <ele>60.2197</ele>
        <time>2012-08-30T17:24:17Z</time>
      </trkpt>
      <trkpt lat="59.9542104" lon="17.7234828">
        <ele>63.5844</ele>
        <time>2012-08-30T17:24:22Z</time>
      </trkpt>
      <trkpt lat="59.9543135" lon="17.7234698">
        <ele>65.9877</ele>
        <time>2012-08-30T17:24:27Z</time>
      </trkpt>
      <trkpt lat="59.9543871" lon="17.723381">
        <ele>64.5457</ele>
        <time>2012-08-30T17:24:31Z</time>
      </trkpt>
      <trkpt lat="59.9544767" lon="17.7234197">
        <ele>65.9877</ele>
        <time>2012-08-30T17:24:36Z</time>
      </trkpt>
      <trkpt lat="59.9545754" lon="17.7234633">
        <ele>66.949</ele>
        <time>2012-08-30T17:24:41Z</time>
      </trkpt>
      <trkpt lat="59.9546484" lon="17.723484">
        <ele>66.949</ele>
        <time>2012-08-30T17:24:45Z</time>
      </trkpt>
      <trkpt lat="59.9547626" lon="17.723576">
        <ele>69.8329</ele>
        <time>2012-08-30T17:24:50Z</time>
      </trkpt>
      <trkpt lat="59.9548869" lon="17.7236254">
        <ele>71.7555</ele>
        <time>2012-08-30T17:24:55Z</time>
      </trkpt>
      <trkpt lat="59.9549396" lon="17.7236527">
        <ele>74.1588</ele>
        <time>2012-08-30T17:24:58Z</time>
      </trkpt>
      <trkpt lat="59.9550973" lon="17.7236011">
        <ele>67.4297</ele>
        <time>2012-08-30T17:25:04Z</time>
      </trkpt>
      <trkpt lat="59.9551887" lon="17.7235655">
        <ele>64.5457</ele>
        <time>2012-08-30T17:25:07Z</time>
      </trkpt>
      <trkpt lat="59.9553256" lon="17.7234557">
        <ele>60.7003</ele>
        <time>2012-08-30T17:25:13Z</time>
      </trkpt>
      <trkpt lat="59.9554504" lon="17.7234518">
        <ele>61.181</ele>
        <time>2012-08-30T17:25:18Z</time>
      </trkpt>
      <trkpt lat="59.9555821" lon="17.7234641">
        <ele>62.6229</ele>
        <time>2012-08-30T17:25:23Z</time>
      </trkpt>
      <trkpt lat="59.9556097" lon="17.7234619">
        <ele>63.5844</ele>
        <time>2012-08-30T17:25:24Z</time>
      </trkpt>
      <trkpt lat="59.9557195" lon="17.723567">
        <ele>64.0651</ele>
        <time>2012-08-30T17:25:29Z</time>
      </trkpt>
      <trkpt lat="59.9558494" lon="17.7236297">
        <ele>68.3909</ele>
        <time>2012-08-30T17:25:34Z</time>
      </trkpt>
      <trkpt lat="59.9558815" lon="17.7236513">
        <ele>69.3523</ele>
        <time>2012-08-30T17:25:35Z</time>
      </trkpt>
      <trkpt lat="59.9559885" lon="17.7236519">
        <ele>65.5071</ele>
        <time>2012-08-30T17:25:40Z</time>
      </trkpt>
      <trkpt lat="59.9561004" lon="17.723398">
        <ele>58.7777</ele>
        <time>2012-08-30T17:25:48Z</time>
      </trkpt>
      <trkpt lat="59.9561177" lon="17.723207">
        <ele>56.8551</ele>
        <time>2012-08-30T17:25:52Z</time>
      </trkpt>
      <trkpt lat="59.956095" lon="17.7230112">
        <ele>56.3745</ele>
        <time>2012-08-30T17:25:56Z</time>
      </trkpt>
      <trkpt lat="59.956084" lon="17.7228002">
        <ele>55.4131</ele>
        <time>2012-08-30T17:26:00Z</time>
      </trkpt>
      <trkpt lat="59.9560508" lon="17.7224983">
        <ele>55.8938</ele>
        <time>2012-08-30T17:26:06Z</time>
      </trkpt>
      <trkpt lat="59.956029" lon="17.7223097">
        <ele>56.3745</ele>
        <time>2012-08-30T17:26:10Z</time>
      </trkpt>
      <trkpt lat="59.9560137" lon="17.7220485">
        <ele>53.9712</ele>
        <time>2012-08-30T17:26:15Z</time>
      </trkpt>
      <trkpt lat="59.9560249" lon="17.7218448">
        <ele>52.0486</ele>
        <time>2012-08-30T17:26:19Z</time>
      </trkpt>
      <trkpt lat="59.9560405" lon="17.7216617">
        <ele>53.4905</ele>
        <time>2012-08-30T17:26:23Z</time>
      </trkpt>
      <trkpt lat="59.9560467" lon="17.7214774">
        <ele>57.3358</ele>
        <time>2012-08-30T17:26:27Z</time>
      </trkpt>
      <trkpt lat="59.9560443" lon="17.7214239">
        <ele>57.3358</ele>
        <time>2012-08-30T17:26:28Z</time>
      </trkpt>
      <trkpt lat="59.9559653" lon="17.7212587">
        <ele>54.9324</ele>
        <time>2012-08-30T17:26:33Z</time>
      </trkpt>
      <trkpt lat="59.9558671" lon="17.7212286">
        <ele>52.0486</ele>
        <time>2012-08-30T17:26:37Z</time>
      </trkpt>
      <trkpt lat="59.9557632" lon="17.7212882">
        <ele>50.6066</ele>
        <time>2012-08-30T17:26:41Z</time>
      </trkpt>
      <trkpt lat="59.9557369" lon="17.7213211">
        <ele>51.0872</ele>
        <time>2012-08-30T17:26:42Z</time>
      </trkpt>
      <trkpt lat="59.9555992" lon="17.7213603">
        <ele>44.8386</ele>
        <time>2012-08-30T17:26:49Z</time>
      </trkpt>
      <trkpt lat="59.9554441" lon="17.7213733">
        <ele>43.8773</ele>
        <time>2012-08-30T17:26:55Z</time>
      </trkpt>
      <trkpt lat="59.9553623" lon="17.7213256">
        <ele>45.3192</ele>
        <time>2012-08-30T17:26:59Z</time>
      </trkpt>
      <trkpt lat="59.955278" lon="17.7213027">
        <ele>43.8773</ele>
        <time>2012-08-30T17:27:03Z</time>
      </trkpt>
      <trkpt lat="59.9551626" lon="17.7212574">
        <ele>40.0321</ele>
        <time>2012-08-30T17:27:09Z</time>
      </trkpt>
      <trkpt lat="59.955144" lon="17.7212483">
        <ele>39.5513</ele>
        <time>2012-08-30T17:27:10Z</time>
      </trkpt>
      <trkpt lat="59.9550362" lon="17.7211628">
        <ele>34.7449</ele>
        <time>2012-08-30T17:27:15Z</time>
      </trkpt>
      <trkpt lat="59.9549157" lon="17.7210945">
        <ele>36.1868</ele>
        <time>2012-08-30T17:27:19Z</time>
      </trkpt>
      <trkpt lat="59.9548973" lon="17.7210701">
        <ele>37.1481</ele>
        <time>2012-08-30T17:27:20Z</time>
      </trkpt>
      <trkpt lat="59.9548424" lon="17.7208151">
        <ele>42.4354</ele>
        <time>2012-08-30T17:27:25Z</time>
      </trkpt>
      <trkpt lat="59.9548325" lon="17.7206993">
        <ele>46.2806</ele>
        <time>2012-08-30T17:27:27Z</time>
      </trkpt>
      <trkpt lat="59.954852" lon="17.7206087">
        <ele>47.2418</ele>
        <time>2012-08-30T17:27:29Z</time>
      </trkpt>
      <trkpt lat="59.9549484" lon="17.7204475">
        <ele>53.0098</ele>
        <time>2012-08-30T17:27:34Z</time>
      </trkpt>
      <trkpt lat="59.9549941" lon="17.7204009">
        <ele>56.3745</ele>
        <time>2012-08-30T17:27:36Z</time>
      </trkpt>
      <trkpt lat="59.9551628" lon="17.7202738">
        <ele>61.181</ele>
        <time>2012-08-30T17:27:43Z</time>
      </trkpt>
      <trkpt lat="59.955255" lon="17.7202399">
        <ele>62.1423</ele>
        <time>2012-08-30T17:27:47Z</time>
      </trkpt>
      <trkpt lat="59.9553651" lon="17.7201712">
        <ele>63.1036</ele>
        <time>2012-08-30T17:27:52Z</time>
      </trkpt>
      <trkpt lat="59.9554283" lon="17.7201196">
        <ele>65.0264</ele>
        <time>2012-08-30T17:27:55Z</time>
      </trkpt>
      <trkpt lat="59.9555421" lon="17.7199704">
        <ele>66.4683</ele>
        <time>2012-08-30T17:28:02Z</time>
      </trkpt>
      <trkpt lat="59.9556313" lon="17.7199072">
        <ele>65.0264</ele>
        <time>2012-08-30T17:28:07Z</time>
      </trkpt>
      <trkpt lat="59.9557283" lon="17.7198132">
        <ele>65.0264</ele>
        <time>2012-08-30T17:28:11Z</time>
      </trkpt>
      <trkpt lat="59.9558708" lon="17.7196716">
        <ele>65.5071</ele>
        <time>2012-08-30T17:28:17Z</time>
      </trkpt>
      <trkpt lat="59.9559519" lon="17.7195815">
        <ele>63.1036</ele>
        <time>2012-08-30T17:28:21Z</time>
      </trkpt>
      <trkpt lat="59.9560298" lon="17.7195047">
        <ele>58.7777</ele>
        <time>2012-08-30T17:28:25Z</time>
      </trkpt>
      <trkpt lat="59.9561334" lon="17.7193451">
        <ele>55.4131</ele>
        <time>2012-08-30T17:28:31Z</time>
      </trkpt>
      <trkpt lat="59.9562253" lon="17.7191732">
        <ele>53.9712</ele>
        <time>2012-08-30T17:28:36Z</time>
      </trkpt>
      <trkpt lat="59.956258" lon="17.7188917">
        <ele>53.0098</ele>
        <time>2012-08-30T17:28:41Z</time>
      </trkpt>
      <trkpt lat="59.9562139" lon="17.7185976">
        <ele>51.5679</ele>
        <time>2012-08-30T17:28:46Z</time>
      </trkpt>
      <trkpt lat="59.9561194" lon="17.7183205">
        <ele>50.126</ele>
        <time>2012-08-30T17:28:51Z</time>
      </trkpt>
      <trkpt lat="59.9560329" lon="17.7180833">
        <ele>49.6453</ele>
        <time>2012-08-30T17:28:56Z</time>
      </trkpt>
      <trkpt lat="59.9559509" lon="17.7178946">
        <ele>51.0872</ele>
        <time>2012-08-30T17:29:00Z</time>
      </trkpt>
      <trkpt lat="59.9558853" lon="17.7177538">
        <ele>51.0872</ele>
        <time>2012-08-30T17:29:04Z</time>
      </trkpt>
      <trkpt lat="59.9557892" lon="17.7175664">
        <ele>50.126</ele>
        <time>2012-08-30T17:29:09Z</time>
      </trkpt>
      <trkpt lat="59.9557205" lon="17.7173327">
        <ele>49.1646</ele>
        <time>2012-08-30T17:29:15Z</time>
      </trkpt>
      <trkpt lat="59.955651" lon="17.7170719">
        <ele>49.1646</ele>
        <time>2012-08-30T17:29:20Z</time>
      </trkpt>
      <trkpt lat="59.9556214" lon="17.7170025">
        <ele>49.1646</ele>
        <time>2012-08-30T17:29:22Z</time>
      </trkpt>
      <trkpt lat="59.9555581" lon="17.7167886">
        <ele>49.1646</ele>
        <time>2012-08-30T17:29:27Z</time>
      </trkpt>
      <trkpt lat="59.9555353" lon="17.7166576">
        <ele>49.6453</ele>
        <time>2012-08-30T17:29:30Z</time>
      </trkpt>
      <trkpt lat="59.9555288" lon="17.7163649">
        <ele>49.6453</ele>
        <time>2012-08-30T17:29:36Z</time>
      </trkpt>
      <trkpt lat="59.9555205" lon="17.7161612">
        <ele>50.6066</ele>
        <time>2012-08-30T17:29:40Z</time>
      </trkpt>
      <trkpt lat="59.9555203" lon="17.7159351">
        <ele>49.6453</ele>
        <time>2012-08-30T17:29:44Z</time>
      </trkpt>
      <trkpt lat="59.9554796" lon="17.7156806">
        <ele>47.7225</ele>
        <time>2012-08-30T17:29:49Z</time>
      </trkpt>
      <trkpt lat="59.955477" lon="17.7154208">
        <ele>45.3192</ele>
        <time>2012-08-30T17:29:54Z</time>
      </trkpt>
      <trkpt lat="59.9554734" lon="17.71533">
        <ele>44.8386</ele>
        <time>2012-08-30T17:29:56Z</time>
      </trkpt>
      <trkpt lat="59.9554469" lon="17.7151428">
        <ele>43.3966</ele>
        <time>2012-08-30T17:30:00Z</time>
      </trkpt>
      <trkpt lat="59.9553972" lon="17.7148844">
        <ele>42.916</ele>
        <time>2012-08-30T17:30:05Z</time>
      </trkpt>
      <trkpt lat="59.9553403" lon="17.7146482">
        <ele>44.358</ele>
        <time>2012-08-30T17:30:10Z</time>
      </trkpt>
      <trkpt lat="59.955308" lon="17.7144583">
        <ele>44.8386</ele>
        <time>2012-08-30T17:30:14Z</time>
      </trkpt>
      <trkpt lat="59.9552605" lon="17.7142267">
        <ele>45.7999</ele>
        <time>2012-08-30T17:30:19Z</time>
      </trkpt>
      <trkpt lat="59.9552268" lon="17.7141427">
        <ele>46.2806</ele>
        <time>2012-08-30T17:30:21Z</time>
      </trkpt>
      <trkpt lat="59.9551693" lon="17.7141024">
        <ele>44.8386</ele>
        <time>2012-08-30T17:30:24Z</time>
      </trkpt>
      <trkpt lat="59.9551573" lon="17.7141338">
        <ele>44.8386</ele>
        <time>2012-08-30T17:30:25Z</time>
      </trkpt>
      <trkpt lat="59.9551511" lon="17.7141804">
        <ele>44.8386</ele>
        <time>2012-08-30T17:30:26Z</time>
      </trkpt>
      <trkpt lat="59.9551335" lon="17.714261">
        <ele>44.8386</ele>
        <time>2012-08-30T17:30:28Z</time>
      </trkpt>
      <trkpt lat="59.9550387" lon="17.7143765">
        <ele>42.4354</ele>
        <time>2012-08-30T17:30:32Z</time>
      </trkpt>
      <trkpt lat="59.9549357" lon="17.7146005">
        <ele>41.474</ele>
        <time>2012-08-30T17:30:38Z</time>
      </trkpt>
      <trkpt lat="59.9548355" lon="17.7147519">
        <ele>41.9547</ele>
        <time>2012-08-30T17:30:43Z</time>
      </trkpt>
      <trkpt lat="59.9547037" lon="17.7147705">
        <ele>40.9934</ele>
        <time>2012-08-30T17:30:48Z</time>
      </trkpt>
      <trkpt lat="59.9545813" lon="17.7148017">
        <ele>40.9934</ele>
        <time>2012-08-30T17:30:53Z</time>
      </trkpt>
      <trkpt lat="59.9544314" lon="17.714802">
        <ele>40.5128</ele>
        <time>2012-08-30T17:30:59Z</time>
      </trkpt>
      <trkpt lat="59.9543213" lon="17.7147974">
        <ele>38.5901</ele>
        <time>2012-08-30T17:31:04Z</time>
      </trkpt>
      <trkpt lat="59.9542406" lon="17.7148302">
        <ele>37.6287</ele>
        <time>2012-08-30T17:31:09Z</time>
      </trkpt>
      <trkpt lat="59.9541674" lon="17.7148408">
        <ele>35.2255</ele>
        <time>2012-08-30T17:31:13Z</time>
      </trkpt>
      <trkpt lat="59.9540812" lon="17.7148846">
        <ele>32.8223</ele>
        <time>2012-08-30T17:31:19Z</time>
      </trkpt>
      <trkpt lat="59.9539732" lon="17.7149001">
        <ele>30.8995</ele>
        <time>2012-08-30T17:31:25Z</time>
      </trkpt>
      <trkpt lat="59.9538675" lon="17.7149213">
        <ele>29.4575</ele>
        <time>2012-08-30T17:31:29Z</time>
      </trkpt>
      <trkpt lat="59.9538027" lon="17.7149657">
        <ele>27.0543</ele>
        <time>2012-08-30T17:31:33Z</time>
      </trkpt>
      <trkpt lat="59.9537074" lon="17.7150949">
        <ele>24.651</ele>
        <time>2012-08-30T17:31:39Z</time>
      </trkpt>
      <trkpt lat="59.953615" lon="17.7152082">
        <ele>22.2476</ele>
        <time>2012-08-30T17:31:44Z</time>
      </trkpt>
      <trkpt lat="59.9535967" lon="17.7152378">
        <ele>21.767</ele>
        <time>2012-08-30T17:31:45Z</time>
      </trkpt>
      <trkpt lat="59.9534531" lon="17.7153719">
        <ele>30.4188</ele>
        <time>2012-08-30T17:31:50Z</time>
      </trkpt>
      <trkpt lat="59.9533116" lon="17.7155883">
        <ele>33.3029</ele>
        <time>2012-08-30T17:31:56Z</time>
      </trkpt>
      <trkpt lat="59.953241" lon="17.7156968">
        <ele>31.8607</ele>
        <time>2012-08-30T17:32:00Z</time>
      </trkpt>
      <trkpt lat="59.9531583" lon="17.7158212">
        <ele>33.3029</ele>
        <time>2012-08-30T17:32:04Z</time>
      </trkpt>
      <trkpt lat="59.9530844" lon="17.7159927">
        <ele>37.1481</ele>
        <time>2012-08-30T17:32:08Z</time>
      </trkpt>
      <trkpt lat="59.9530086" lon="17.7162397">
        <ele>40.9934</ele>
        <time>2012-08-30T17:32:14Z</time>
      </trkpt>
      <trkpt lat="59.9529536" lon="17.7165211">
        <ele>40.5128</ele>
        <time>2012-08-30T17:32:20Z</time>
      </trkpt>
      <trkpt lat="59.9529335" lon="17.7167161">
        <ele>40.0321</ele>
        <time>2012-08-30T17:32:24Z</time>
      </trkpt>
      <trkpt lat="59.9528934" lon="17.7169579">
        <ele>40.5128</ele>
        <time>2012-08-30T17:32:29Z</time>
      </trkpt>
      <trkpt lat="59.9528587" lon="17.7171859">
        <ele>40.9934</ele>
        <time>2012-08-30T17:32:34Z</time>
      </trkpt>
      <trkpt lat="59.9527714" lon="17.7174328">
        <ele>44.358</ele>
        <time>2012-08-30T17:32:40Z</time>
      </trkpt>
      <trkpt lat="59.9526895" lon="17.7176849">
        <ele>46.7612</ele>
        <time>2012-08-30T17:32:46Z</time>
      </trkpt>
      <trkpt lat="59.9526668" lon="17.7178263">
        <ele>48.2034</ele>
        <time>2012-08-30T17:32:50Z</time>
      </trkpt>
      <trkpt lat="59.9526168" lon="17.7179893">
        <ele>48.684</ele>
        <time>2012-08-30T17:32:54Z</time>
      </trkpt>
      <trkpt lat="59.9525599" lon="17.7181429">
        <ele>48.684</ele>
        <time>2012-08-30T17:32:58Z</time>
      </trkpt>
      <trkpt lat="59.9525429" lon="17.7182185">
        <ele>48.2034</ele>
        <time>2012-08-30T17:33:00Z</time>
      </trkpt>
      <trkpt lat="59.952504" lon="17.718513">
        <ele>49.6453</ele>
        <time>2012-08-30T17:33:07Z</time>
      </trkpt>
      <trkpt lat="59.9524738" lon="17.7186682">
        <ele>51.0872</ele>
        <time>2012-08-30T17:33:11Z</time>
      </trkpt>
      <trkpt lat="59.9524322" lon="17.7188528">
        <ele>53.0098</ele>
        <time>2012-08-30T17:33:15Z</time>
      </trkpt>
      <trkpt lat="59.9523865" lon="17.7190326">
        <ele>52.5292</ele>
        <time>2012-08-30T17:33:19Z</time>
      </trkpt>
      <trkpt lat="59.9523762" lon="17.7191938">
        <ele>52.5292</ele>
        <time>2012-08-30T17:33:23Z</time>
      </trkpt>
      <trkpt lat="59.9523797" lon="17.7194345">
        <ele>52.5292</ele>
        <time>2012-08-30T17:33:28Z</time>
      </trkpt>
      <trkpt lat="59.9523979" lon="17.719669">
        <ele>51.5679</ele>
        <time>2012-08-30T17:33:33Z</time>
      </trkpt>
      <trkpt lat="59.9524564" lon="17.7198951">
        <ele>51.0872</ele>
        <time>2012-08-30T17:33:38Z</time>
      </trkpt>
      <trkpt lat="59.9524901" lon="17.7200639">
        <ele>49.6453</ele>
        <time>2012-08-30T17:33:42Z</time>
      </trkpt>
      <trkpt lat="59.9525013" lon="17.7203014">
        <ele>45.7999</ele>
        <time>2012-08-30T17:33:47Z</time>
      </trkpt>
      <trkpt lat="59.9525034" lon="17.7205476">
        <ele>45.7999</ele>
        <time>2012-08-30T17:33:52Z</time>
      </trkpt>
      <trkpt lat="59.952508" lon="17.7208321">
        <ele>46.7612</ele>
        <time>2012-08-30T17:33:58Z</time>
      </trkpt>
      <trkpt lat="59.952502" lon="17.7210509">
        <ele>48.2034</ele>
        <time>2012-08-30T17:34:03Z</time>
      </trkpt>
      <trkpt lat="59.9525124" lon="17.7212434">
        <ele>48.2034</ele>
        <time>2012-08-30T17:34:07Z</time>
      </trkpt>
      <trkpt lat="59.9525221" lon="17.7214985">
        <ele>51.0872</ele>
        <time>2012-08-30T17:34:12Z</time>
      </trkpt>
      <trkpt lat="59.9525239" lon="17.721729">
        <ele>49.6453</ele>
        <time>2012-08-30T17:34:17Z</time>
      </trkpt>
      <trkpt lat="59.9525399" lon="17.7219154">
        <ele>50.6066</ele>
        <time>2012-08-30T17:34:21Z</time>
      </trkpt>
      <trkpt lat="59.9525812" lon="17.7221512">
        <ele>52.0486</ele>
        <time>2012-08-30T17:34:26Z</time>
      </trkpt>
      <trkpt lat="59.9525559" lon="17.7223763">
        <ele>53.9712</ele>
        <time>2012-08-30T17:34:31Z</time>
      </trkpt>
      <trkpt lat="59.9525176" lon="17.7226323">
        <ele>54.9324</ele>
        <time>2012-08-30T17:34:37Z</time>
      </trkpt>
      <trkpt lat="59.9525186" lon="17.7226789">
        <ele>55.4131</ele>
        <time>2012-08-30T17:34:38Z</time>
      </trkpt>
      <trkpt lat="59.9524786" lon="17.7228977">
        <ele>55.4131</ele>
        <time>2012-08-30T17:34:43Z</time>
      </trkpt>
      <trkpt lat="59.9525013" lon="17.723093">
        <ele>55.8938</ele>
        <time>2012-08-30T17:34:47Z</time>
      </trkpt>
      <trkpt lat="59.9525228" lon="17.7233269">
        <ele>57.8165</ele>
        <time>2012-08-30T17:34:52Z</time>
      </trkpt>
      <trkpt lat="59.9525471" lon="17.7233968">
        <ele>57.3358</ele>
        <time>2012-08-30T17:34:54Z</time>
      </trkpt>
      <trkpt lat="59.9526239" lon="17.7236436">
        <ele>56.8551</ele>
        <time>2012-08-30T17:35:00Z</time>
      </trkpt>
      <trkpt lat="59.9526386" lon="17.7236827">
        <ele>56.3745</ele>
        <time>2012-08-30T17:35:01Z</time>
      </trkpt>
      <trkpt lat="59.9526936" lon="17.7239632">
        <ele>54.9324</ele>
        <time>2012-08-30T17:35:07Z</time>
      </trkpt>
      <trkpt lat="59.9527004" lon="17.7240637">
        <ele>54.9324</ele>
        <time>2012-08-30T17:35:09Z</time>
      </trkpt>
      <trkpt lat="59.9526403" lon="17.7242724">
        <ele>53.0098</ele>
        <time>2012-08-30T17:35:15Z</time>
      </trkpt>
      <trkpt lat="59.952616" lon="17.7243423">
        <ele>51.5679</ele>
        <time>2012-08-30T17:35:17Z</time>
      </trkpt>
      <trkpt lat="59.9525013" lon="17.7245888">
        <ele>47.2418</ele>
        <time>2012-08-30T17:35:24Z</time>
      </trkpt>
      <trkpt lat="59.952357" lon="17.7247996">
        <ele>45.3192</ele>
        <time>2012-08-30T17:35:30Z</time>
      </trkpt>
      <trkpt lat="59.952287" lon="17.7249257">
        <ele>45.7999</ele>
        <time>2012-08-30T17:35:34Z</time>
      </trkpt>
      <trkpt lat="59.9521979" lon="17.7250949">
        <ele>45.7999</ele>
        <time>2012-08-30T17:35:39Z</time>
      </trkpt>
      <trkpt lat="59.9520986" lon="17.7252848">
        <ele>47.2418</ele>
        <time>2012-08-30T17:35:44Z</time>
      </trkpt>
      <trkpt lat="59.9520156" lon="17.7254556">
        <ele>48.2034</ele>
        <time>2012-08-30T17:35:49Z</time>
      </trkpt>
      <trkpt lat="59.951943" lon="17.7255895">
        <ele>48.2034</ele>
        <time>2012-08-30T17:35:53Z</time>
      </trkpt>
      <trkpt lat="59.951925" lon="17.7256228">
        <ele>48.2034</ele>
        <time>2012-08-30T17:35:54Z</time>
      </trkpt>
      <trkpt lat="59.9518191" lon="17.7258177">
        <ele>47.2418</ele>
        <time>2012-08-30T17:36:00Z</time>
      </trkpt>
      <trkpt lat="59.95173" lon="17.7259578">
        <ele>47.2418</ele>
        <time>2012-08-30T17:36:04Z</time>
      </trkpt>
      <trkpt lat="59.9516344" lon="17.7260674">
        <ele>48.684</ele>
        <time>2012-08-30T17:36:08Z</time>
      </trkpt>
      <trkpt lat="59.9515624" lon="17.7261938">
        <ele>48.2034</ele>
        <time>2012-08-30T17:36:12Z</time>
      </trkpt>
      <trkpt lat="59.9515036" lon="17.7263251">
        <ele>48.684</ele>
        <time>2012-08-30T17:36:16Z</time>
      </trkpt>
      <trkpt lat="59.9514347" lon="17.7265201">
        <ele>49.1646</ele>
        <time>2012-08-30T17:36:21Z</time>
      </trkpt>
      <trkpt lat="59.9513929" lon="17.7266242">
        <ele>49.1646</ele>
        <time>2012-08-30T17:36:24Z</time>
      </trkpt>
      <trkpt lat="59.9513634" lon="17.7268517">
        <ele>46.7612</ele>
        <time>2012-08-30T17:36:30Z</time>
      </trkpt>
      <trkpt lat="59.9513778" lon="17.727067">
        <ele>45.3192</ele>
        <time>2012-08-30T17:36:35Z</time>
      </trkpt>
      <trkpt lat="59.9513736" lon="17.727335">
        <ele>44.358</ele>
        <time>2012-08-30T17:36:40Z</time>
      </trkpt>
      <trkpt lat="59.951385" lon="17.7276161">
        <ele>40.5128</ele>
        <time>2012-08-30T17:36:46Z</time>
      </trkpt>
      <trkpt lat="59.9514503" lon="17.7277678">
        <ele>38.1094</ele>
        <time>2012-08-30T17:36:50Z</time>
      </trkpt>
      <trkpt lat="59.9515585" lon="17.7278681">
        <ele>37.1481</ele>
        <time>2012-08-30T17:36:55Z</time>
      </trkpt>
      <trkpt lat="59.9516892" lon="17.7278815">
        <ele>36.1868</ele>
        <time>2012-08-30T17:37:00Z</time>
      </trkpt>
      <trkpt lat="59.9518116" lon="17.7278504">
        <ele>39.0707</ele>
        <time>2012-08-30T17:37:04Z</time>
      </trkpt>
      <trkpt lat="59.9519441" lon="17.7277934">
        <ele>41.9547</ele>
        <time>2012-08-30T17:37:09Z</time>
      </trkpt>
      <trkpt lat="59.9519752" lon="17.7277396">
        <ele>41.9547</ele>
        <time>2012-08-30T17:37:11Z</time>
      </trkpt>
      <trkpt lat="59.9520328" lon="17.7275328">
        <ele>41.9547</ele>
        <time>2012-08-30T17:37:16Z</time>
      </trkpt>
      <trkpt lat="59.9520734" lon="17.7272479">
        <ele>41.474</ele>
        <time>2012-08-30T17:37:21Z</time>
      </trkpt>
      <trkpt lat="59.9521239" lon="17.7270149">
        <ele>40.0321</ele>
        <time>2012-08-30T17:37:26Z</time>
      </trkpt>
      <trkpt lat="59.9521877" lon="17.7267624">
        <ele>40.5128</ele>
        <time>2012-08-30T17:37:32Z</time>
      </trkpt>
      <trkpt lat="59.9521989" lon="17.7267165">
        <ele>40.5128</ele>
        <time>2012-08-30T17:37:33Z</time>
      </trkpt>
      <trkpt lat="59.9522466" lon="17.7265243">
        <ele>40.5128</ele>
        <time>2012-08-30T17:37:38Z</time>
      </trkpt>
      <trkpt lat="59.9523016" lon="17.7264114">
        <ele>40.9934</ele>
        <time>2012-08-30T17:37:42Z</time>
      </trkpt>
      <trkpt lat="59.9523609" lon="17.726348">
        <ele>40.9934</ele>
        <time>2012-08-30T17:37:45Z</time>
      </trkpt>
      <trkpt lat="59.9524324" lon="17.7262353">
        <ele>40.9934</ele>
        <time>2012-08-30T17:37:49Z</time>
      </trkpt>
      <trkpt lat="59.9524787" lon="17.7261102">
        <ele>40.5128</ele>
        <time>2012-08-30T17:37:52Z</time>
      </trkpt>
      <trkpt lat="59.9525839" lon="17.7259336">
        <ele>39.0707</ele>
        <time>2012-08-30T17:37:58Z</time>
      </trkpt>
      <trkpt lat="59.9526517" lon="17.7258487">
        <ele>39.0707</ele>
        <time>2012-08-30T17:38:02Z</time>
      </trkpt>
      <trkpt lat="59.9527386" lon="17.7256919">
        <ele>38.5901</ele>
        <time>2012-08-30T17:38:07Z</time>
      </trkpt>
      <trkpt lat="59.9527968" lon="17.7255617">
        <ele>38.1094</ele>
        <time>2012-08-30T17:38:11Z</time>
      </trkpt>
      <trkpt lat="59.952872" lon="17.725378">
        <ele>40.0321</ele>
        <time>2012-08-30T17:38:16Z</time>
      </trkpt>
      <trkpt lat="59.9529533" lon="17.7252006">
        <ele>40.9934</ele>
        <time>2012-08-30T17:38:21Z</time>
      </trkpt>
      <trkpt lat="59.9529979" lon="17.7250917">
        <ele>41.9547</ele>
        <time>2012-08-30T17:38:24Z</time>
      </trkpt>
      <trkpt lat="59.9531038" lon="17.7249308">
        <ele>42.4354</ele>
        <time>2012-08-30T17:38:30Z</time>
      </trkpt>
      <trkpt lat="59.9531702" lon="17.7247578">
        <ele>42.916</ele>
        <time>2012-08-30T17:38:35Z</time>
      </trkpt>
      <trkpt lat="59.9532234" lon="17.7246401">
        <ele>43.8773</ele>
        <time>2012-08-30T17:38:39Z</time>
      </trkpt>
      <trkpt lat="59.9532419" lon="17.7246061">
        <ele>43.8773</ele>
        <time>2012-08-30T17:38:40Z</time>
      </trkpt>
      <trkpt lat="59.9533558" lon="17.724447">
        <ele>44.358</ele>
        <time>2012-08-30T17:38:46Z</time>
      </trkpt>
      <trkpt lat="59.9534628" lon="17.7242868">
        <ele>45.3192</ele>
        <time>2012-08-30T17:38:52Z</time>
      </trkpt>
      <trkpt lat="59.953538" lon="17.7241347">
        <ele>46.2806</ele>
        <time>2012-08-30T17:38:57Z</time>
      </trkpt>
      <trkpt lat="59.953623" lon="17.7239768">
        <ele>44.8386</ele>
        <time>2012-08-30T17:39:02Z</time>
      </trkpt>
      <trkpt lat="59.9537057" lon="17.7238498">
        <ele>42.916</ele>
        <time>2012-08-30T17:39:06Z</time>
      </trkpt>
      <trkpt lat="59.9537488" lon="17.7237565">
        <ele>43.8773</ele>
        <time>2012-08-30T17:39:09Z</time>
      </trkpt>
      <trkpt lat="59.9538452" lon="17.7235675">
        <ele>44.358</ele>
        <time>2012-08-30T17:39:16Z</time>
      </trkpt>
      <trkpt lat="59.9539403" lon="17.7234582">
        <ele>42.4354</ele>
        <time>2012-08-30T17:39:21Z</time>
      </trkpt>
      <trkpt lat="59.954042" lon="17.723387">
        <ele>41.9547</ele>
        <time>2012-08-30T17:39:26Z</time>
      </trkpt>
      <trkpt lat="59.954101" lon="17.7233844">
        <ele>44.8386</ele>
        <time>2012-08-30T17:39:29Z</time>
      </trkpt>
      <trkpt lat="59.9541699" lon="17.7232937">
        <ele>45.3192</ele>
        <time>2012-08-30T17:39:33Z</time>
      </trkpt>
      <trkpt lat="59.9543131" lon="17.7233095">
        <ele>44.358</ele>
        <time>2012-08-30T17:39:40Z</time>
      </trkpt>
      <trkpt lat="59.9544091" lon="17.7233349">
        <ele>45.3192</ele>
        <time>2012-08-30T17:39:44Z</time>
      </trkpt>
      <trkpt lat="59.9545723" lon="17.7233673">
        <ele>46.7612</ele>
        <time>2012-08-30T17:39:50Z</time>
      </trkpt>
      <trkpt lat="59.9546673" lon="17.7233921">
        <ele>48.2034</ele>
        <time>2012-08-30T17:39:54Z</time>
      </trkpt>
      <trkpt lat="59.9547901" lon="17.7234706">
        <ele>50.126</ele>
        <time>2012-08-30T17:39:59Z</time>
      </trkpt>
      <trkpt lat="59.95491" lon="17.7235535">
        <ele>52.0486</ele>
        <time>2012-08-30T17:40:04Z</time>
      </trkpt>
      <trkpt lat="59.9550388" lon="17.723552">
        <ele>54.9324</ele>
        <time>2012-08-30T17:40:10Z</time>
      </trkpt>
      <trkpt lat="59.9551696" lon="17.7234992">
        <ele>54.4518</ele>
        <time>2012-08-30T17:40:16Z</time>
      </trkpt>
      <trkpt lat="59.9552905" lon="17.7234196">
        <ele>53.4905</ele>
        <time>2012-08-30T17:40:21Z</time>
      </trkpt>
      <trkpt lat="59.9553506" lon="17.7233746">
        <ele>53.4905</ele>
        <time>2012-08-30T17:40:24Z</time>
      </trkpt>
      <trkpt lat="59.9555044" lon="17.7233842">
        <ele>54.9324</ele>
        <time>2012-08-30T17:40:31Z</time>
      </trkpt>
      <trkpt lat="59.9555945" lon="17.7234192">
        <ele>53.4905</ele>
        <time>2012-08-30T17:40:36Z</time>
      </trkpt>
      <trkpt lat="59.9556757" lon="17.7234906">
        <ele>52.0486</ele>
        <time>2012-08-30T17:40:40Z</time>
      </trkpt>
      <trkpt lat="59.9557558" lon="17.7236161">
        <ele>50.126</ele>
        <time>2012-08-30T17:40:45Z</time>
      </trkpt>
      <trkpt lat="59.9558023" lon="17.7236233">
        <ele>49.6453</ele>
        <time>2012-08-30T17:40:47Z</time>
      </trkpt>
      <trkpt lat="59.9558674" lon="17.7236128">
        <ele>50.126</ele>
        <time>2012-08-30T17:40:50Z</time>
      </trkpt>
      <trkpt lat="59.955964" lon="17.7234234">
        <ele>49.6453</ele>
        <time>2012-08-30T17:40:56Z</time>
      </trkpt>
      <trkpt lat="59.9560219" lon="17.7231976">
        <ele>48.2034</ele>
        <time>2012-08-30T17:41:02Z</time>
      </trkpt>
      <trkpt lat="59.9560404" lon="17.7231129">
        <ele>48.2034</ele>
        <time>2012-08-30T17:41:04Z</time>
      </trkpt>
      <trkpt lat="59.9560343" lon="17.7228914">
        <ele>49.1646</ele>
        <time>2012-08-30T17:41:09Z</time>
      </trkpt>
      <trkpt lat="59.9560116" lon="17.722804">
        <ele>49.1646</ele>
        <time>2012-08-30T17:41:11Z</time>
      </trkpt>
      <trkpt lat="59.9559759" lon="17.722561">
        <ele>50.126</ele>
        <time>2012-08-30T17:41:16Z</time>
      </trkpt>
      <trkpt lat="59.9559451" lon="17.7223758">
        <ele>52.0486</ele>
        <time>2012-08-30T17:41:20Z</time>
      </trkpt>
      <trkpt lat="59.955922" lon="17.7220803">
        <ele>53.4905</ele>
        <time>2012-08-30T17:41:26Z</time>
      </trkpt>
      <trkpt lat="59.9559208" lon="17.7218829">
        <ele>53.0098</ele>
        <time>2012-08-30T17:41:30Z</time>
      </trkpt>
      <trkpt lat="59.9559359" lon="17.7215726">
        <ele>52.5292</ele>
        <time>2012-08-30T17:41:36Z</time>
      </trkpt>
      <trkpt lat="59.9559391" lon="17.7214311">
        <ele>53.4905</ele>
        <time>2012-08-30T17:41:39Z</time>
      </trkpt>
      <trkpt lat="59.9558639" lon="17.7212385">
        <ele>53.0098</ele>
        <time>2012-08-30T17:41:45Z</time>
      </trkpt>
      <trkpt lat="59.9557749" lon="17.7211927">
        <ele>51.0872</ele>
        <time>2012-08-30T17:41:49Z</time>
      </trkpt>
      <trkpt lat="59.9556667" lon="17.7212995">
        <ele>50.126</ele>
        <time>2012-08-30T17:41:54Z</time>
      </trkpt>
      <trkpt lat="59.9556287" lon="17.721332">
        <ele>50.126</ele>
        <time>2012-08-30T17:41:56Z</time>
      </trkpt>
      <trkpt lat="59.9555355" lon="17.7213639">
        <ele>47.2418</ele>
        <time>2012-08-30T17:42:01Z</time>
      </trkpt>
      <trkpt lat="59.9554178" lon="17.721368">
        <ele>42.916</ele>
        <time>2012-08-30T17:42:07Z</time>
      </trkpt>
      <trkpt lat="59.9553034" lon="17.7213524">
        <ele>40.0321</ele>
        <time>2012-08-30T17:42:13Z</time>
      </trkpt>
      <trkpt lat="59.9552098" lon="17.7213369">
        <ele>40.0321</ele>
        <time>2012-08-30T17:42:17Z</time>
      </trkpt>
      <trkpt lat="59.9551887" lon="17.721327">
        <ele>40.5128</ele>
        <time>2012-08-30T17:42:18Z</time>
      </trkpt>
      <trkpt lat="59.9551091" lon="17.7213233">
        <ele>39.0707</ele>
        <time>2012-08-30T17:42:22Z</time>
      </trkpt>
      <trkpt lat="59.9550168" lon="17.7212849">
        <ele>37.1481</ele>
        <time>2012-08-30T17:42:26Z</time>
      </trkpt>
      <trkpt lat="59.9548713" lon="17.7211302">
        <ele>37.6287</ele>
        <time>2012-08-30T17:42:32Z</time>
      </trkpt>
      <trkpt lat="59.9548056" lon="17.7208695">
        <ele>43.8773</ele>
        <time>2012-08-30T17:42:38Z</time>
      </trkpt>
      <trkpt lat="59.9547966" lon="17.720771">
        <ele>45.7999</ele>
        <time>2012-08-30T17:42:40Z</time>
      </trkpt>
      <trkpt lat="59.9548217" lon="17.7205778">
        <ele>49.6453</ele>
        <time>2012-08-30T17:42:44Z</time>
      </trkpt>
      <trkpt lat="59.9549038" lon="17.7204542">
        <ele>51.5679</ele>
        <time>2012-08-30T17:42:48Z</time>
      </trkpt>
      <trkpt lat="59.955006" lon="17.7204077">
        <ele>53.4905</ele>
        <time>2012-08-30T17:42:52Z</time>
      </trkpt>
      <trkpt lat="59.9551366" lon="17.7203253">
        <ele>56.3745</ele>
        <time>2012-08-30T17:42:58Z</time>
      </trkpt>
      <trkpt lat="59.955283" lon="17.7202746">
        <ele>58.7777</ele>
        <time>2012-08-30T17:43:03Z</time>
      </trkpt>
      <trkpt lat="59.9553759" lon="17.7202191">
        <ele>58.2971</ele>
        <time>2012-08-30T17:43:07Z</time>
      </trkpt>
      <trkpt lat="59.9554272" lon="17.72019">
        <ele>59.2584</ele>
        <time>2012-08-30T17:43:09Z</time>
      </trkpt>
      <trkpt lat="59.95552" lon="17.7200978">
        <ele>60.7003</ele>
        <time>2012-08-30T17:43:14Z</time>
      </trkpt>
      <trkpt lat="59.9555638" lon="17.720091">
        <ele>60.2197</ele>
        <time>2012-08-30T17:43:17Z</time>
      </trkpt>
      <trkpt lat="59.9556499" lon="17.7200222">
        <ele>61.181</ele>
        <time>2012-08-30T17:43:22Z</time>
      </trkpt>
      <trkpt lat="59.955764" lon="17.7198953">
        <ele>59.7391</ele>
        <time>2012-08-30T17:43:27Z</time>
      </trkpt>
      <trkpt lat="59.9558712" lon="17.7197557">
        <ele>59.2584</ele>
        <time>2012-08-30T17:43:32Z</time>
      </trkpt>
      <trkpt lat="59.9559825" lon="17.719629">
        <ele>57.8165</ele>
        <time>2012-08-30T17:43:37Z</time>
      </trkpt>
      <trkpt lat="59.9560586" lon="17.7195164">
        <ele>54.9324</ele>
        <time>2012-08-30T17:43:41Z</time>
      </trkpt>
      <trkpt lat="59.9561311" lon="17.7193535">
        <ele>53.0098</ele>
        <time>2012-08-30T17:43:45Z</time>
      </trkpt>
      <trkpt lat="59.9561746" lon="17.7192909">
        <ele>53.9712</ele>
        <time>2012-08-30T17:43:48Z</time>
      </trkpt>
      <trkpt lat="59.956201" lon="17.7191683">
        <ele>55.4131</ele>
        <time>2012-08-30T17:43:50Z</time>
      </trkpt>
      <trkpt lat="59.9562334" lon="17.7188415">
        <ele>58.2971</ele>
        <time>2012-08-30T17:43:56Z</time>
      </trkpt>
      <trkpt lat="59.9562126" lon="17.7186423">
        <ele>58.7777</ele>
        <time>2012-08-30T17:43:59Z</time>
      </trkpt>
      <trkpt lat="59.9561331" lon="17.7183847">
        <ele>60.2197</ele>
        <time>2012-08-30T17:44:04Z</time>
      </trkpt>
      <trkpt lat="59.9560601" lon="17.7182065">
        <ele>60.7003</ele>
        <time>2012-08-30T17:44:08Z</time>
      </trkpt>
      <trkpt lat="59.9559705" lon="17.7180346">
        <ele>60.7003</ele>
        <time>2012-08-30T17:44:13Z</time>
      </trkpt>
      <trkpt lat="59.9558857" lon="17.7178543">
        <ele>61.181</ele>
        <time>2012-08-30T17:44:17Z</time>
      </trkpt>
      <trkpt lat="59.9558535" lon="17.7177326">
        <ele>61.181</ele>
        <time>2012-08-30T17:44:19Z</time>
      </trkpt>
      <trkpt lat="59.9557725" lon="17.7175404">
        <ele>60.7003</ele>
        <time>2012-08-30T17:44:24Z</time>
      </trkpt>
      <trkpt lat="59.9557085" lon="17.7173607">
        <ele>60.7003</ele>
        <time>2012-08-30T17:44:28Z</time>
      </trkpt>
      <trkpt lat="59.9556166" lon="17.717147">
        <ele>60.2197</ele>
        <time>2012-08-30T17:44:33Z</time>
      </trkpt>
      <trkpt lat="59.9555505" lon="17.7169328">
        <ele>60.7003</ele>
        <time>2012-08-30T17:44:38Z</time>
      </trkpt>
      <trkpt lat="59.9554905" lon="17.716627">
        <ele>59.2584</ele>
        <time>2012-08-30T17:44:43Z</time>
      </trkpt>
      <trkpt lat="59.9554727" lon="17.716336">
        <ele>57.8165</ele>
        <time>2012-08-30T17:44:48Z</time>
      </trkpt>
      <trkpt lat="59.9554856" lon="17.7161826">
        <ele>54.9324</ele>
        <time>2012-08-30T17:44:51Z</time>
      </trkpt>
      <trkpt lat="59.9554617" lon="17.7158392">
        <ele>51.0872</ele>
        <time>2012-08-30T17:44:57Z</time>
      </trkpt>
      <trkpt lat="59.9554319" lon="17.7155015">
        <ele>51.0872</ele>
        <time>2012-08-30T17:45:02Z</time>
      </trkpt>
      <trkpt lat="59.955437" lon="17.7152595">
        <ele>49.6453</ele>
        <time>2012-08-30T17:45:06Z</time>
      </trkpt>
      <trkpt lat="59.9554126" lon="17.7150424">
        <ele>49.6453</ele>
        <time>2012-08-30T17:45:10Z</time>
      </trkpt>
      <trkpt lat="59.9553442" lon="17.7147633">
        <ele>48.2034</ele>
        <time>2012-08-30T17:45:15Z</time>
      </trkpt>
      <trkpt lat="59.9552988" lon="17.7144924">
        <ele>45.3192</ele>
        <time>2012-08-30T17:45:20Z</time>
      </trkpt>
      <trkpt lat="59.9552375" lon="17.714221">
        <ele>43.8773</ele>
        <time>2012-08-30T17:45:26Z</time>
      </trkpt>
      <trkpt lat="59.9552045" lon="17.7141284">
        <ele>43.3966</ele>
        <time>2012-08-30T17:45:28Z</time>
      </trkpt>
      <trkpt lat="59.9551378" lon="17.7141909">
        <ele>42.916</ele>
        <time>2012-08-30T17:45:32Z</time>
      </trkpt>
    </trkseg>
  </trk>
</gpx>